sensor_id;sensor_type;location;lat;lon;timestamp;pressure;altitude;pressure_sealevel;temperature;humidity
44974;BME280;60981;50.720;11.342;2023-02-02T00:00:17;99500.81;;;4.75;100.00
44974;BME280;60981;50.720;11.342;2023-02-02T00:01:20;99495.72;;;4.77;100.00
44974;BME280;60981;50.720;11.342;2023-02-02T00:02:22;99500.84;;;4.77;100.00
44974;BME280;60981;50.720;11.342;2023-02-02T00:03:23;99505.97;;;4.78;100.00
44974;BME280;60981;50.720;11.342;2023-02-02T00:04:28;99507.84;;;4.86;100.00
44974;BME280;60981;50.720;11.342;2023-02-02T00:05:30;99502.00;;;4.90;100.00
44974;BME280;60981;50.720;11.342;2023-02-02T00:06:32;99507.09;;;4.90;100.00
44974;BME280;60981;50.720;11.342;2023-02-02T00:07:33;99509.78;;;4.96;100.00
44974;BME280;60981;50.720;11.342;2023-02-02T00:08:35;99500.41;;;4.95;100.00
44974;BME280;60981;50.720;11.342;2023-02-02T00:09:38;99498.69;;;4.94;100.00
44974;BME280;60981;50.720;11.342;2023-02-02T00:10:40;99505.41;;;4.90;100.00
44974;BME280;60981;50.720;11.342;2023-02-02T00:11:42;99505.31;;;4.87;100.00
44974;BME280;60981;50.720;11.342;2023-02-02T00:12:44;99494.31;;;4.88;100.00
44974;BME280;60981;50.720;11.342;2023-02-02T00:13:46;99502.75;;;4.87;100.00
44974;BME280;60981;50.720;11.342;2023-02-02T00:14:47;99502.91;;;4.92;100.00
44974;BME280;60981;50.720;11.342;2023-02-02T00:15:51;99499.47;;;4.91;100.00
44974;BME280;60981;50.720;11.342;2023-02-02T00:16:54;99498.50;;;4.86;100.00
44974;BME280;60981;50.720;11.342;2023-02-02T00:17:56;99505.25;;;4.84;100.00
44974;BME280;60981;50.720;11.342;2023-02-02T00:19:00;99501.13;;;4.89;100.00
44974;BME280;60981;50.720;11.342;2023-02-02T00:20:02;99504.63;;;4.93;100.00
44974;BME280;60981;50.720;11.342;2023-02-02T00:21:04;99502.84;;;4.89;100.00
44974;BME280;60981;50.720;11.342;2023-02-02T00:22:06;99507.09;;;4.90;100.00
44974;BME280;60981;50.720;11.342;2023-02-02T00:23:07;99514.81;;;4.93;100.00
44974;BME280;60981;50.720;11.342;2023-02-02T00:24:11;99495.06;;;4.86;100.00
44974;BME280;60981;50.720;11.342;2023-02-02T00:25:15;99502.72;;;4.86;100.00
44974;BME280;60981;50.720;11.342;2023-02-02T00:26:17;99501.00;;;4.85;100.00
44974;BME280;60981;50.720;11.342;2023-02-02T00:27:19;99499.28;;;4.83;100.00
44974;BME280;60981;50.720;11.342;2023-02-02T00:28:21;99504.44;;;4.87;100.00
44974;BME280;60981;50.720;11.342;2023-02-02T00:29:25;99495.25;;;4.92;100.00
44974;BME280;60981;50.720;11.342;2023-02-02T00:30:27;99489.34;;;4.94;100.00
44974;BME280;60981;50.720;11.342;2023-02-02T00:31:28;99496.06;;;4.91;100.00
44974;BME280;60981;50.720;11.342;2023-02-02T00:32:30;99495.31;;;4.95;100.00
44974;BME280;60981;50.720;11.342;2023-02-02T00:33:32;99503.72;;;4.91;100.00
44974;BME280;60981;50.720;11.342;2023-02-02T00:34:34;99488.44;;;4.92;100.00
44974;BME280;60981;50.720;11.342;2023-02-02T00:35:39;99492.00;;;4.99;100.00
44974;BME280;60981;50.720;11.342;2023-02-02T00:36:42;99499.03;;;5.07;100.00
44974;BME280;60981;50.720;11.342;2023-02-02T00:37:43;99500.69;;;5.05;100.00
44974;BME280;60981;50.720;11.342;2023-02-02T00:38:46;99492.06;;;5.02;100.00
44974;BME280;60981;50.720;11.342;2023-02-02T00:39:48;99495.41;;;4.99;100.00
44974;BME280;60981;50.720;11.342;2023-02-02T00:40:49;99499.81;;;5.05;100.00
44974;BME280;60981;50.720;11.342;2023-02-02T00:41:51;99498.19;;;5.08;100.00
44974;BME280;60981;50.720;11.342;2023-02-02T00:42:53;99505.81;;;5.07;100.00
44974;BME280;60981;50.720;11.342;2023-02-02T00:43:54;99509.34;;;5.12;100.00
44974;BME280;60981;50.720;11.342;2023-02-02T00:45:15;99511.75;;;5.06;100.00
44974;BME280;60981;50.720;11.342;2023-02-02T00:46:17;99513.50;;;5.08;100.00
44974;BME280;60981;50.720;11.342;2023-02-02T00:47:19;99507.53;;;5.08;100.00
44974;BME280;60981;50.720;11.342;2023-02-02T00:48:21;99509.16;;;5.04;100.00
44974;BME280;60981;50.720;11.342;2023-02-02T00:49:22;99510.28;;;5.17;100.00
44974;BME280;60981;50.720;11.342;2023-02-02T00:50:24;99509.41;;;5.15;100.00
44974;BME280;60981;50.720;11.342;2023-02-02T00:51:26;99516.97;;;5.12;100.00
44974;BME280;60981;50.720;11.342;2023-02-02T00:52:27;99512.78;;;5.14;100.00
44974;BME280;60981;50.720;11.342;2023-02-02T00:53:29;99517.03;;;5.13;100.00
44974;BME280;60981;50.720;11.342;2023-02-02T00:54:31;99517.06;;;5.15;100.00
44974;BME280;60981;50.720;11.342;2023-02-02T00:55:32;99511.03;;;5.11;100.00
44974;BME280;60981;50.720;11.342;2023-02-02T00:56:34;99517.97;;;5.19;100.00
44974;BME280;60981;50.720;11.342;2023-02-02T00:57:36;99522.25;;;5.20;100.00
44974;BME280;60981;50.720;11.342;2023-02-02T00:58:37;99518.97;;;5.24;100.00
44974;BME280;60981;50.720;11.342;2023-02-02T00:59:40;99519.78;;;5.21;99.93
44974;BME280;60981;50.720;11.342;2023-02-02T01:00:41;99516.44;;;5.25;99.89
44974;BME280;60981;50.720;11.342;2023-02-02T01:01:43;99516.41;;;5.24;99.74
44974;BME280;60981;50.720;11.342;2023-02-02T01:02:45;99517.22;;;5.21;99.17
44974;BME280;60981;50.720;11.342;2023-02-02T01:03:49;99518.94;;;5.22;99.38
44974;BME280;60981;50.720;11.342;2023-02-02T01:04:51;99519.00;;;5.25;99.93
44974;BME280;60981;50.720;11.342;2023-02-02T01:05:52;99528.22;;;5.20;99.48
44974;BME280;60981;50.720;11.342;2023-02-02T01:06:54;99525.66;;;5.20;99.74
44974;BME280;60981;50.720;11.342;2023-02-02T01:07:56;99522.25;;;5.20;99.84
44974;BME280;60981;50.720;11.342;2023-02-02T01:08:57;99531.56;;;5.18;100.00
44974;BME280;60981;50.720;11.342;2023-02-02T01:09:59;99536.56;;;5.13;99.99
44974;BME280;60981;50.720;11.342;2023-02-02T01:11:01;99528.59;;;4.99;99.35
44974;BME280;60981;50.720;11.342;2023-02-02T01:12:02;99525.28;;;5.03;98.34
44974;BME280;60981;50.720;11.342;2023-02-02T01:13:04;99518.41;;;5.01;98.59
44974;BME280;60981;50.720;11.342;2023-02-02T01:14:06;99524.31;;;4.98;98.60
44974;BME280;60981;50.720;11.342;2023-02-02T01:15:08;99523.31;;;4.92;99.48
44974;BME280;60981;50.720;11.342;2023-02-02T01:16:11;99517.44;;;4.96;99.32
44974;BME280;60981;50.720;11.342;2023-02-02T01:17:13;99530.09;;;4.91;99.90
44974;BME280;60981;50.720;11.342;2023-02-02T01:18:15;99521.63;;;4.92;99.69
44974;BME280;60981;50.720;11.342;2023-02-02T01:19:16;99522.31;;;4.87;99.59
44974;BME280;60981;50.720;11.342;2023-02-02T01:20:19;99518.06;;;4.87;99.75
44974;BME280;60981;50.720;11.342;2023-02-02T01:21:21;99518.84;;;4.85;100.00
44974;BME280;60981;50.720;11.342;2023-02-02T01:22:23;99525.69;;;4.86;99.85
44974;BME280;60981;50.720;11.342;2023-02-02T01:23:24;99528.28;;;4.87;99.90
44974;BME280;60981;50.720;11.342;2023-02-02T01:24:26;99524.84;;;4.87;99.89
44974;BME280;60981;50.720;11.342;2023-02-02T01:25:28;99523.97;;;4.85;100.00
44974;BME280;60981;50.720;11.342;2023-02-02T01:26:30;99529.13;;;4.88;100.00
44974;BME280;60981;50.720;11.342;2023-02-02T01:27:32;99513.75;;;4.85;99.83
44974;BME280;60981;50.720;11.342;2023-02-02T01:28:34;99521.69;;;4.95;100.00
44974;BME280;60981;50.720;11.342;2023-02-02T01:29:36;99519.25;;;5.00;99.95
44974;BME280;60981;50.720;11.342;2023-02-02T01:30:37;99525.19;;;5.00;99.93
44974;BME280;60981;50.720;11.342;2023-02-02T01:31:40;99514.16;;;5.01;99.78
44974;BME280;60981;50.720;11.342;2023-02-02T01:32:42;99512.66;;;5.08;98.88
44974;BME280;60981;50.720;11.342;2023-02-02T01:33:45;99521.13;;;5.07;99.17
44974;BME280;60981;50.720;11.342;2023-02-02T01:34:47;99521.09;;;5.05;99.26
44974;BME280;60981;50.720;11.342;2023-02-02T01:35:52;99524.31;;;4.98;99.80
44974;BME280;60981;50.720;11.342;2023-02-02T01:36:54;99521.72;;;4.97;99.32
44974;BME280;60981;50.720;11.342;2023-02-02T01:37:55;99526.84;;;4.98;99.87
44974;BME280;60981;50.720;11.342;2023-02-02T01:38:57;99529.38;;;4.97;99.65
44974;BME280;60981;50.720;11.342;2023-02-02T01:39:58;99529.31;;;4.94;99.87
44974;BME280;60981;50.720;11.342;2023-02-02T01:41:00;99525.97;;;4.96;99.13
44974;BME280;60981;50.720;11.342;2023-02-02T01:42:13;99532.81;;;4.99;99.50
44974;BME280;60981;50.720;11.342;2023-02-02T01:43:25;99527.59;;;4.93;99.75
44974;BME280;60981;50.720;11.342;2023-02-02T01:46:10;99531.75;;;4.89;99.66
44974;BME280;60981;50.720;11.342;2023-02-02T01:47:13;99527.41;;;4.87;99.74
44974;BME280;60981;50.720;11.342;2023-02-02T01:48:15;99528.19;;;4.84;99.48
44974;BME280;60981;50.720;11.342;2023-02-02T01:49:19;99526.56;;;4.86;99.48
44974;BME280;60981;50.720;11.342;2023-02-02T01:50:24;99524.09;;;4.89;99.71
44974;BME280;60981;50.720;11.342;2023-02-02T01:51:35;99535.75;;;4.79;99.90
44974;BME280;60981;50.720;11.342;2023-02-02T01:52:39;99522.25;;;4.83;100.00
44974;BME280;60981;50.720;11.342;2023-02-02T01:53:45;99530.66;;;4.79;100.00
44974;BME280;60981;50.720;11.342;2023-02-02T01:54:55;99522.97;;;4.78;100.00
44974;BME280;60981;50.720;11.342;2023-02-02T01:55:58;99526.31;;;4.75;100.00
44974;BME280;60981;50.720;11.342;2023-02-02T01:57:25;99522.03;;;4.74;100.00
44974;BME280;60981;50.720;11.342;2023-02-02T01:58:32;99517.72;;;4.72;100.00
44974;BME280;60981;50.720;11.342;2023-02-02T01:59:34;99516.09;;;4.75;100.00
44974;BME280;60981;50.720;11.342;2023-02-02T02:00:38;99516.03;;;4.72;100.00
44974;BME280;60981;50.720;11.342;2023-02-02T02:01:43;99515.81;;;4.65;100.00
44974;BME280;60981;50.720;11.342;2023-02-02T02:02:47;99521.78;;;4.65;100.00
44974;BME280;60981;50.720;11.342;2023-02-02T02:03:49;99531.16;;;4.66;100.00
44974;BME280;60981;50.720;11.342;2023-02-02T02:04:51;99514.94;;;4.64;100.00
44974;BME280;60981;50.720;11.342;2023-02-02T02:05:56;99516.78;;;4.70;100.00
44974;BME280;60981;50.720;11.342;2023-02-02T02:07:00;99520.94;;;4.66;100.00
44974;BME280;60981;50.720;11.342;2023-02-02T02:08:15;99517.59;;;4.69;100.00
44974;BME280;60981;50.720;11.342;2023-02-02T02:09:18;99516.72;;;4.67;100.00
44974;BME280;60981;50.720;11.342;2023-02-02T02:10:20;99513.38;;;4.69;100.00
44974;BME280;60981;50.720;11.342;2023-02-02T02:11:22;99525.31;;;4.70;100.00
44974;BME280;60981;50.720;11.342;2023-02-02T02:12:24;99524.44;;;4.70;100.00
44974;BME280;60981;50.720;11.342;2023-02-02T02:13:27;99516.88;;;4.73;100.00
44974;BME280;60981;50.720;11.342;2023-02-02T02:14:49;99522.09;;;4.77;100.00
44974;BME280;60981;50.720;11.342;2023-02-02T02:16:23;99517.81;;;4.76;100.00
44974;BME280;60981;50.720;11.342;2023-02-02T02:22:05;99525.31;;;4.70;100.00
44974;BME280;60981;50.720;11.342;2023-02-02T02:27:47;99532.81;;;4.64;100.00
44974;BME280;60981;50.720;11.342;2023-02-02T02:30:45;99536.31;;;4.69;100.00
44974;BME280;60981;50.720;11.342;2023-02-02T02:32:17;99533.06;;;4.73;100.00
44974;BME280;60981;50.720;11.342;2023-02-02T02:33:25;99529.72;;;4.76;100.00
44974;BME280;60981;50.720;11.342;2023-02-02T02:40:29;99533.75;;;4.68;100.00
44974;BME280;60981;50.720;11.342;2023-02-02T02:41:38;99531.22;;;4.69;100.00
44974;BME280;60981;50.720;11.342;2023-02-02T02:42:45;99544.16;;;4.75;100.00
44974;BME280;60981;50.720;11.342;2023-02-02T02:43:52;99533.81;;;4.71;100.00
44974;BME280;60981;50.720;11.342;2023-02-02T02:44:59;99538.81;;;4.66;100.00
44974;BME280;60981;50.720;11.342;2023-02-02T02:46:02;99535.38;;;4.66;100.00
44974;BME280;60981;50.720;11.342;2023-02-02T02:47:05;99549.69;;;4.59;100.00
44974;BME280;60981;50.720;11.342;2023-02-02T02:48:07;99545.28;;;4.55;100.00
44974;BME280;60981;50.720;11.342;2023-02-02T02:49:11;99534.38;;;4.59;100.00
44974;BME280;60981;50.720;11.342;2023-02-02T02:50:13;99530.00;;;4.55;100.00
44974;BME280;60981;50.720;11.342;2023-02-02T02:51:38;99545.41;;;4.58;100.00
44974;BME280;60981;50.720;11.342;2023-02-02T02:52:40;99544.56;;;4.59;100.00
44974;BME280;60981;50.720;11.342;2023-02-02T02:53:42;99538.66;;;4.60;100.00
44974;BME280;60981;50.720;11.342;2023-02-02T02:54:52;99547.13;;;4.59;100.00
44974;BME280;60981;50.720;11.342;2023-02-02T02:56:17;99541.28;;;4.63;100.00
44974;BME280;60981;50.720;11.342;2023-02-02T02:58:44;99539.63;;;4.65;99.87
44974;BME280;60981;50.720;11.342;2023-02-02T03:01:24;99537.91;;;4.64;100.00
44974;BME280;60981;50.720;11.342;2023-02-02T03:02:43;99540.44;;;4.64;100.00
44974;BME280;60981;50.720;11.342;2023-02-02T03:06:37;99541.53;;;4.72;99.02
44974;BME280;60981;50.720;11.342;2023-02-02T03:07:54;99536.53;;;4.77;98.77
44974;BME280;60981;50.720;11.342;2023-02-02T03:10:04;99540.66;;;4.72;98.40
44974;BME280;60981;50.720;11.342;2023-02-02T03:11:10;99538.03;;;4.70;98.79
44974;BME280;60981;50.720;11.342;2023-02-02T03:12:15;99541.47;;;4.71;98.84
44974;BME280;60981;50.720;11.342;2023-02-02T03:13:17;99549.19;;;4.72;98.92
44974;BME280;60981;50.720;11.342;2023-02-02T03:14:19;99547.34;;;4.68;99.08
44974;BME280;60981;50.720;11.342;2023-02-02T03:15:21;99544.88;;;4.71;99.44
44974;BME280;60981;50.720;11.342;2023-02-02T03:16:23;99546.75;;;4.77;98.96
44974;BME280;60981;50.720;11.342;2023-02-02T03:17:26;99542.31;;;4.71;99.13
44974;BME280;60981;50.720;11.342;2023-02-02T03:18:29;99546.63;;;4.72;99.10
44974;BME280;60981;50.720;11.342;2023-02-02T03:19:32;99544.13;;;4.74;99.17
44974;BME280;60981;50.720;11.342;2023-02-02T03:20:34;99545.81;;;4.73;99.80
44974;BME280;60981;50.720;11.342;2023-02-02T03:21:36;99540.75;;;4.75;99.78
44974;BME280;60981;50.720;11.342;2023-02-02T03:22:37;99544.13;;;4.74;99.59
44974;BME280;60981;50.720;11.342;2023-02-02T03:23:39;99555.22;;;4.76;99.86
44974;BME280;60981;50.720;11.342;2023-02-02T03:24:40;99551.66;;;4.71;99.64
44974;BME280;60981;50.720;11.342;2023-02-02T03:25:42;99547.34;;;4.68;99.75
44974;BME280;60981;50.720;11.342;2023-02-02T03:26:44;99546.53;;;4.69;99.30
44974;BME280;60981;50.720;11.342;2023-02-02T03:27:46;99545.00;;;4.76;98.93
44974;BME280;60981;50.720;11.342;2023-02-02T03:28:49;99551.06;;;4.79;98.70
44974;BME280;60981;50.720;11.342;2023-02-02T03:29:51;99549.09;;;4.71;99.34
44974;BME280;60981;50.720;11.342;2023-02-02T03:30:53;99564.38;;;4.69;99.99
44974;BME280;60981;50.720;11.342;2023-02-02T03:31:55;99555.81;;;4.67;99.16
44974;BME280;60981;50.720;11.342;2023-02-02T03:32:57;99554.09;;;4.66;98.58
44974;BME280;60981;50.720;11.342;2023-02-02T03:33:59;99557.50;;;4.67;98.87
44974;BME280;60981;50.720;11.342;2023-02-02T03:35:01;99549.81;;;4.65;98.85
44974;BME280;60981;50.720;11.342;2023-02-02T03:36:02;99548.22;;;4.69;98.06
44974;BME280;60981;50.720;11.342;2023-02-02T03:37:04;99558.41;;;4.69;97.85
44974;BME280;60981;50.720;11.342;2023-02-02T03:38:06;99555.28;;;4.79;97.16
44974;BME280;60981;50.720;11.342;2023-02-02T03:39:09;99563.03;;;4.83;96.69
44974;BME280;60981;50.720;11.342;2023-02-02T03:40:11;99557.09;;;4.83;96.29
44974;BME280;60981;50.720;11.342;2023-02-02T03:41:12;99551.81;;;4.75;96.39
44974;BME280;60981;50.720;11.342;2023-02-02T03:42:14;99558.59;;;4.75;96.41
44974;BME280;60981;50.720;11.342;2023-02-02T03:43:20;99557.75;;;4.76;96.29
44974;BME280;60981;50.720;11.342;2023-02-02T03:44:22;99554.13;;;4.68;96.32
44974;BME280;60981;50.720;11.342;2023-02-02T03:45:26;99560.88;;;4.66;96.46
44974;BME280;60981;50.720;11.342;2023-02-02T03:46:28;99555.78;;;4.66;96.46
44974;BME280;60981;50.720;11.342;2023-02-02T03:47:31;99557.47;;;4.65;96.34
44974;BME280;60981;50.720;11.342;2023-02-02T03:48:36;99559.13;;;4.63;96.54
44974;BME280;60981;50.720;11.342;2023-02-02T03:49:38;99563.47;;;4.67;96.09
44974;BME280;60981;50.720;11.342;2023-02-02T03:50:40;99571.13;;;4.67;96.07
44974;BME280;60981;50.720;11.342;2023-02-02T03:51:42;99555.75;;;4.64;95.77
44974;BME280;60981;50.720;11.342;2023-02-02T03:52:44;99567.72;;;4.67;96.24
44974;BME280;60981;50.720;11.342;2023-02-02T03:53:46;99568.47;;;4.63;95.59
44974;BME280;60981;50.720;11.342;2023-02-02T03:54:48;99572.63;;;4.59;95.56
44974;BME280;60981;50.720;11.342;2023-02-02T03:55:49;99563.47;;;4.67;95.03
44974;BME280;60981;50.720;11.342;2023-02-02T03:56:51;99574.44;;;4.63;95.33
44974;BME280;60981;50.720;11.342;2023-02-02T03:57:53;99569.41;;;4.66;94.66
44974;BME280;60981;50.720;11.342;2023-02-02T03:58:54;99577.94;;;4.68;94.92
44974;BME280;60981;50.720;11.342;2023-02-02T03:59:56;99568.47;;;4.63;94.92
44974;BME280;60981;50.720;11.342;2023-02-02T04:01:01;99577.06;;;4.66;94.61
44974;BME280;60981;50.720;11.342;2023-02-02T04:02:03;99572.13;;;4.72;94.72
44974;BME280;60981;50.720;11.342;2023-02-02T04:03:05;99590.56;;;4.62;94.30
44974;BME280;60981;50.720;11.342;2023-02-02T04:04:07;99582.13;;;4.65;93.44
44974;BME280;60981;50.720;11.342;2023-02-02T04:05:08;99576.97;;;4.63;94.00
44974;BME280;60981;50.720;11.342;2023-02-02T04:06:10;99582.22;;;4.69;93.59
44974;BME280;60981;50.720;11.342;2023-02-02T04:07:12;99588.16;;;4.68;93.49
44974;BME280;60981;50.720;11.342;2023-02-02T04:08:14;99599.84;;;4.60;94.06
44974;BME280;60981;50.720;11.342;2023-02-02T04:09:16;99583.75;;;4.63;93.39
44974;BME280;60981;50.720;11.342;2023-02-02T04:10:17;99590.63;;;4.65;93.36
44974;BME280;60981;50.720;11.342;2023-02-02T04:11:20;99586.44;;;4.67;93.15
44974;BME280;60981;50.720;11.342;2023-02-02T04:12:21;99589.81;;;4.66;93.29
44974;BME280;60981;50.720;11.342;2023-02-02T04:13:23;99587.19;;;4.63;93.72
44974;BME280;60981;50.720;11.342;2023-02-02T04:14:25;99596.56;;;4.64;93.39
44974;BME280;60981;50.720;11.342;2023-02-02T04:15:26;99599.09;;;4.64;92.95
44974;BME280;60981;50.720;11.342;2023-02-02T04:16:28;99602.50;;;4.65;93.30
44974;BME280;60981;50.720;11.342;2023-02-02T04:17:35;99612.59;;;4.60;93.37
44974;BME280;60981;50.720;11.342;2023-02-02T04:18:37;99596.41;;;4.58;93.58
44974;BME280;60981;50.720;11.342;2023-02-02T04:19:38;99603.25;;;4.61;93.59
44974;BME280;60981;50.720;11.342;2023-02-02T04:20:40;99601.56;;;4.61;93.95
44974;BME280;60981;50.720;11.342;2023-02-02T04:21:41;99608.34;;;4.61;94.01
44974;BME280;60981;50.720;11.342;2023-02-02T04:22:43;99612.56;;;4.59;93.61
44974;BME280;60981;50.720;11.342;2023-02-02T04:23:45;99608.25;;;4.56;93.88
44974;BME280;60981;50.720;11.342;2023-02-02T04:24:46;99607.31;;;4.54;94.09
44974;BME280;60981;50.720;11.342;2023-02-02T04:25:49;99604.88;;;4.57;94.08
44974;BME280;60981;50.720;11.342;2023-02-02T04:26:50;99613.56;;;4.65;93.59
44974;BME280;60981;50.720;11.342;2023-02-02T04:27:52;99621.00;;;4.56;93.69
44974;BME280;60981;50.720;11.342;2023-02-02T04:28:54;99622.56;;;4.52;93.81
44974;BME280;60981;50.720;11.342;2023-02-02T04:29:55;99617.63;;;4.57;93.77
44974;BME280;60981;50.720;11.342;2023-02-02T04:30:57;99613.50;;;4.62;94.09
44974;BME280;60981;50.720;11.342;2023-02-02T04:31:59;99616.09;;;4.64;93.79
44974;BME280;60981;50.720;11.342;2023-02-02T04:33:00;99615.06;;;4.57;93.55
44974;BME280;60981;50.720;11.342;2023-02-02T04:34:02;99615.78;;;4.53;93.69
44974;BME280;60981;50.720;11.342;2023-02-02T04:35:04;99613.22;;;4.53;94.04
44974;BME280;60981;50.720;11.342;2023-02-02T04:36:06;99621.53;;;4.46;93.84
44974;BME280;60981;50.720;11.342;2023-02-02T04:37:09;99619.84;;;4.46;93.96
44974;BME280;60981;50.720;11.342;2023-02-02T04:38:11;99618.13;;;4.45;94.47
44974;BME280;60981;50.720;11.342;2023-02-02T04:39:12;99616.47;;;4.47;94.90
44974;BME280;60981;50.720;11.342;2023-02-02T04:40:14;99623.19;;;4.44;94.46
44974;BME280;60981;50.720;11.342;2023-02-02T04:41:16;99622.50;;;4.49;94.45
44974;BME280;60981;50.720;11.342;2023-02-02T04:42:19;99611.44;;;4.49;94.37
44974;BME280;60981;50.720;11.342;2023-02-02T04:43:21;99616.38;;;4.43;94.00
44974;BME280;60981;50.720;11.342;2023-02-02T04:44:22;99625.00;;;4.48;94.11
44974;BME280;60981;50.720;11.342;2023-02-02T04:45:24;99626.72;;;4.49;94.10
44974;BME280;60981;50.720;11.342;2023-02-02T04:46:26;99631.75;;;4.46;93.99
44974;BME280;60981;50.720;11.342;2023-02-02T04:47:29;99633.34;;;4.42;93.71
44974;BME280;60981;50.720;11.342;2023-02-02T04:48:30;99625.78;;;4.45;93.39
44974;BME280;60981;50.720;11.342;2023-02-02T04:49:32;99631.03;;;4.51;92.94
44974;BME280;60981;50.720;11.342;2023-02-02T04:50:34;99646.97;;;4.43;93.70
44974;BME280;60981;50.720;11.342;2023-02-02T04:51:37;99631.75;;;4.46;93.25
44974;BME280;60981;50.720;11.342;2023-02-02T04:52:39;99631.03;;;4.51;93.32
44974;BME280;60981;50.720;11.342;2023-02-02T04:53:41;99633.38;;;4.44;93.21
44974;BME280;60981;50.720;11.342;2023-02-02T04:54:42;99629.19;;;4.46;92.93
44974;BME280;60981;50.720;11.342;2023-02-02T04:55:44;99634.22;;;4.43;93.30
44974;BME280;60981;50.720;11.342;2023-02-02T04:56:45;99638.47;;;4.44;93.29
44974;BME280;60981;50.720;11.342;2023-02-02T04:57:47;99646.25;;;4.48;93.45
44974;BME280;60981;50.720;11.342;2023-02-02T04:58:52;99635.34;;;4.54;93.37
44974;BME280;60981;50.720;11.342;2023-02-02T04:59:54;99639.59;;;4.53;93.01
44974;BME280;60981;50.720;11.342;2023-02-02T05:00:56;99638.66;;;4.50;93.18
44974;BME280;60981;50.720;11.342;2023-02-02T05:01:59;99646.38;;;4.53;93.55
44974;BME280;60981;50.720;11.342;2023-02-02T05:03:01;99647.25;;;4.53;93.20
44974;BME280;60981;50.720;11.342;2023-02-02T05:04:03;99642.84;;;4.48;93.70
44974;BME280;60981;50.720;11.342;2023-02-02T05:05:06;99646.28;;;4.50;93.26
44974;BME280;60981;50.720;11.342;2023-02-02T05:06:09;99646.50;;;4.56;93.05
44974;BME280;60981;50.720;11.342;2023-02-02T05:07:11;57367.47;;;-144.53;100.00
44974;BME280;60981;50.720;11.342;2023-02-02T05:08:13;99638.75;;;4.55;92.53
44974;BME280;60981;50.720;11.342;2023-02-02T05:09:14;99644.56;;;4.49;93.17
44974;BME280;60981;50.720;11.342;2023-02-02T05:10:16;99643.81;;;4.53;92.85
44974;BME280;60981;50.720;11.342;2023-02-02T05:11:20;99637.97;;;4.56;92.77
44974;BME280;60981;50.720;11.342;2023-02-02T05:12:22;99639.00;;;4.62;92.57
44974;BME280;60981;50.720;11.342;2023-02-02T05:13:24;99642.38;;;4.61;93.04
44974;BME280;60981;50.720;11.342;2023-02-02T05:14:26;99648.22;;;4.57;92.53
44974;BME280;60981;50.720;11.342;2023-02-02T05:15:27;99641.44;;;4.58;92.64
44974;BME280;60981;50.720;11.342;2023-02-02T05:16:29;99636.41;;;4.61;92.63
44974;BME280;60981;50.720;11.342;2023-02-02T05:17:31;99633.00;;;4.60;92.41
44974;BME280;60981;50.720;11.342;2023-02-02T05:18:32;99637.19;;;4.58;92.76
44974;BME280;60981;50.720;11.342;2023-02-02T05:19:34;99642.13;;;4.53;93.08
44974;BME280;60981;50.720;11.342;2023-02-02T05:20:35;99639.56;;;4.52;93.51
44974;BME280;60981;50.720;11.342;2023-02-02T05:21:37;99637.88;;;4.52;93.72
44974;BME280;60981;50.720;11.342;2023-02-02T05:22:39;99639.63;;;4.55;93.61
44974;BME280;60981;50.720;11.342;2023-02-02T05:23:41;99636.13;;;4.51;93.07
44974;BME280;60981;50.720;11.342;2023-02-02T05:24:42;99632.88;;;4.56;93.14
44974;BME280;60981;50.720;11.342;2023-02-02T05:25:44;99634.25;;;4.44;93.43
44974;BME280;60981;50.720;11.342;2023-02-02T05:26:45;99636.19;;;4.53;93.71
44974;BME280;60981;50.720;11.342;2023-02-02T05:27:47;99630.97;;;4.48;94.08
44974;BME280;60981;50.720;11.342;2023-02-02T05:28:49;99636.97;;;4.50;93.84
44974;BME280;60981;50.720;11.342;2023-02-02T05:29:51;99639.50;;;4.50;93.85
44974;BME280;60981;50.720;11.342;2023-02-02T05:30:52;99627.72;;;4.54;93.45
44974;BME280;60981;50.720;11.342;2023-02-02T05:31:55;99641.31;;;4.55;92.99
44974;BME280;60981;50.720;11.342;2023-02-02T05:32:56;99635.34;;;4.54;93.24
44974;BME280;60981;50.720;11.342;2023-02-02T05:33:58;99636.19;;;4.53;93.33
44974;BME280;60981;50.720;11.342;2023-02-02T05:35:00;99642.91;;;4.51;93.19
44974;BME280;60981;50.720;11.342;2023-02-02T05:36:02;99642.09;;;4.52;93.39
44974;BME280;60981;50.720;11.342;2023-02-02T05:37:03;99642.19;;;4.55;93.58
44974;BME280;60981;50.720;11.342;2023-02-02T05:38:05;99648.91;;;4.53;93.74
44974;BME280;60981;50.720;11.342;2023-02-02T05:39:08;99647.13;;;4.49;93.91
44974;BME280;60981;50.720;11.342;2023-02-02T05:40:10;99652.50;;;4.58;93.98
44974;BME280;60981;50.720;11.342;2023-02-02T05:41:12;99644.00;;;4.59;93.99
44974;BME280;60981;50.720;11.342;2023-02-02T05:42:13;99642.28;;;4.58;93.51
44974;BME280;60981;50.720;11.342;2023-02-02T05:43:15;99648.28;;;4.60;93.54
44974;BME280;60981;50.720;11.342;2023-02-02T05:44:17;99653.38;;;4.60;93.82
44974;BME280;60981;50.720;11.342;2023-02-02T05:45:18;99656.84;;;4.62;93.75
44974;BME280;60981;50.720;11.342;2023-02-02T05:46:20;99647.34;;;4.57;93.51
44974;BME280;60981;50.720;11.342;2023-02-02T05:47:22;99655.91;;;4.59;93.67
44974;BME280;60981;50.720;11.342;2023-02-02T05:48:24;99654.13;;;4.56;93.94
44974;BME280;60981;50.720;11.342;2023-02-02T05:49:26;99650.75;;;4.57;93.83
44974;BME280;60981;50.720;11.342;2023-02-02T05:50:28;99657.59;;;4.58;94.03
44974;BME280;60981;50.720;11.342;2023-02-02T05:51:39;99661.13;;;4.63;94.36
44974;BME280;60981;50.720;11.342;2023-02-02T05:52:43;99656.03;;;4.63;93.93
44974;BME280;60981;50.720;11.342;2023-02-02T05:53:45;99649.19;;;4.62;93.79
44974;BME280;60981;50.720;11.342;2023-02-02T05:54:47;99655.13;;;4.61;94.03
44974;BME280;60981;50.720;11.342;2023-02-02T05:55:48;99657.63;;;4.60;94.31
44974;BME280;60981;50.720;11.342;2023-02-02T05:56:52;99657.81;;;4.67;94.05
44974;BME280;60981;50.720;11.342;2023-02-02T05:57:57;99652.72;;;4.67;94.24
44974;BME280;60981;50.720;11.342;2023-02-02T05:58:59;99658.72;;;4.69;94.15